LFKJLFKF

Guest
Details From LFKJ - Napoleon Bonaparte
To LFKF - Figari Sud Corse
Flight Number -
Tags decoded
Created
Modified
Stats Distance 29 nm / 53 km
Max Altitude 0 ft / 0 m
Waypoints 2
Social Downloads 1
Likes 0
Share

Download

Looking for another format? Having issues loading an existing format? Contact us
Advertisement - Login to hide

Notes

Requested: LFKJ LFKF

Route

LFKJ LFKF

ID Type Via Altitude (ft/m) Position (lat/lon) Dist (leg/tot) Name
O LFKJ APT - 0 / 0 41.92289 / 8.79959 - / 0 nm Napoleon Bonaparte
O LFKF APT - 0 / 0 41.50206 / 9.09696 28 / 28 nm Figari Sud Corse

Altitude Profile

Advertisement - Login to hide

LFKJ

Details ICAO LFKJ (AJA)
Name Napoleon Bonaparte
Region France
Timezone Europe/Paris (UTC+2.0)
Stats Elevation 19 ft / 6 m (AMSL)
Location 41.921700° 8.801090°
Runways 1
Magnetic Variation 2.635° E

METAR

LFKJ 211500Z AUTO 26004KT CAVOK 22/12 Q1018 NOSIG

Decode

TAF

TAF LFKJ 211400Z 2115/2215 22006KT CAVOK BECMG 2117/2119 05005KT BECMG 2209/2211 23006KT

Decode

Departure Runways

ID Width Length Bearing (true/mag) Surface Threshold Overrun Markings Lighting
02 148 ft / 45 m 7,904 ft / 2,409 m 24.84° / 22.21° CONCRETE 0 ft / 0 m 161 ft / 49 m PREC-APP CENTERLINE EDGE THRESHOLD REIL-OMNI
20 148 ft / 45 m 7,904 ft / 2,409 m 204.85° / 202.21° CONCRETE 741 ft / 226 m 230 ft / 70 m PREC-APP CENTERLINE EDGE THRESHOLD REIL-OMNI

LFKF

Details ICAO LFKF (FSC)
Name Figari Sud Corse
Region France
Timezone Europe/Paris (UTC+2.0)
Stats Elevation 86 ft / 26 m (AMSL)
Location 41.502300° 9.096970°
Runways 1
Magnetic Variation 2.681° E

METAR

LFKF 211500Z AUTO 05014KT 9999 FEW023 21/15 Q1020 BECMG 05015G25KT

Decode

TAF

TAF LFKF 211400Z 2115/2215 05015G25KT 9999 FEW030 BECMG 2117/2119 BKN023 BECMG 2119/2121 06013KT TEMPO 2203/2215 OVC013 TEMPO 2209/2215 06015G25KT

Decode

Destination Runways

ID Width Length Bearing (true/mag) Surface Threshold Overrun Markings Lighting
05 148 ft / 45 m 8,144 ft / 2,482 m 47.43° / 44.75° CONCRETE 0 ft / 0 m 0 ft / 0 m APP CENTERLINE EDGE THRESHOLD
23 148 ft / 45 m 8,144 ft / 2,482 m 227.45° / 224.77° CONCRETE 0 ft / 0 m 0 ft / 0 m PREC-APP CENTERLINE EDGE THRESHOLD

Approach Navaids

Runway Type Ident Frequency Range Bearing (true/mag) Slope Elevation
23 GS GR 110.50 MHz 10 nm / 19 km 227.44° / 224.76 ° 3.50° 86 ft / 26 m (AMSL)
23 DME GR 110.50 MHz 18 nm / 33 km - - 131 ft / 40 m (AMSL)
23 OM OM - - 227.43° / 224.75 ° - 87 ft / 27 m (AMSL)
23 LOC-ILS GR 110.50 MHz 18 nm / 33 km 227.44° / 224.76 ° - 86 ft / 26 m (AMSL)

Popular Alternatives